createdAt,value
2022-08-03T06:15:04.761Z,1014.64
2022-08-03T06:20:06.361Z,1014.66
2022-08-03T06:25:03.446Z,1014.65
2022-08-03T06:30:05.176Z,1014.58
2022-08-03T06:35:03.288Z,1014.55
2022-08-03T06:40:04.197Z,1014.54
2022-08-03T06:45:03.178Z,1014.53
2022-08-03T06:50:13.104Z,1014.59
2022-08-03T06:55:03.288Z,1014.57
2022-08-03T07:00:08.777Z,1014.52
2022-08-03T07:05:03.132Z,1014.58
2022-08-03T07:10:04.173Z,1014.56
2022-08-03T07:15:03.535Z,1014.53
2022-08-03T07:20:04.131Z,1014.58
2022-08-03T07:25:03.025Z,1014.57
2022-08-03T07:30:04.668Z,1014.51
2022-08-03T07:35:03.061Z,1014.56
2022-08-03T07:40:04.154Z,1014.55
2022-08-03T07:45:03.139Z,1014.56
2022-08-03T07:50:04.174Z,1014.59
2022-08-03T07:55:03.154Z,1014.52
2022-08-03T08:00:04.531Z,1014.47
2022-08-03T08:05:05.645Z,1014.44
2022-08-03T08:10:04.153Z,1014.47
2022-08-03T08:15:03.214Z,1014.43
2022-08-03T08:20:04.163Z,1014.4
2022-08-03T08:25:03.052Z,1014.43
2022-08-03T08:30:10.991Z,1014.39
2022-08-03T08:35:03.061Z,1014.37
2022-08-03T08:40:04.113Z,1014.36
2022-08-03T08:45:03.083Z,1014.34
2022-08-03T08:50:09.956Z,1014.32
2022-08-03T08:55:04.215Z,1014.3
2022-08-03T09:00:04.465Z,1014.33
2022-08-03T09:05:07.278Z,1014.27
2022-08-03T09:10:10.730Z,1014.31
2022-08-03T09:15:16.234Z,1014.33
2022-08-03T09:20:04.127Z,1014.3
2022-08-03T09:25:23.101Z,1014.29
2022-08-03T09:30:04.864Z,1014.26
2022-08-03T09:35:03.098Z,1014.31
2022-08-03T09:40:04.175Z,1014.38
2022-08-03T09:45:03.092Z,1014.41
2022-08-03T09:50:04.215Z,1014.43
2022-08-03T09:55:03.751Z,1014.5
2022-08-03T10:00:08.274Z,1014.6
2022-08-03T10:05:03.096Z,1014.67
2022-08-03T10:10:29.198Z,1014.73
2022-08-03T10:15:03.121Z,1014.74
2022-08-03T10:20:04.270Z,1014.76
2022-08-03T10:25:03.113Z,1014.72
2022-08-03T10:30:04.291Z,1014.75
2022-08-03T10:35:04.106Z,1014.77
2022-08-03T10:40:07.296Z,1014.79
2022-08-03T10:45:06.384Z,1014.83
2022-08-03T10:50:04.418Z,1014.86
2022-08-03T10:55:07.291Z,1014.96
2022-08-03T11:00:05.263Z,1015.0
2022-08-03T11:05:03.190Z,1015.01
2022-08-03T11:10:07.759Z,1015.05
2022-08-03T11:15:03.069Z,1015.09
2022-08-03T11:20:04.095Z,1015.08
2022-08-03T11:25:03.194Z,1015.13
2022-08-03T11:30:04.709Z,1015.15
2022-08-03T11:35:03.118Z,1015.19
2022-08-03T11:40:04.091Z,1015.21
2022-08-03T11:45:03.143Z,1015.27
2022-08-03T11:50:04.196Z,1015.29
2022-08-03T11:55:03.079Z,1015.28
2022-08-03T12:00:04.473Z,1015.36
2022-08-03T12:05:03.155Z,1015.39
2022-08-03T12:10:04.013Z,1015.4
2022-08-03T12:15:03.087Z,1015.43
2022-08-03T12:20:04.184Z,1015.44
2022-08-03T12:25:03.002Z,1015.49
2022-08-03T12:30:04.762Z,1015.46
2022-08-03T15:40:04.132Z,1013.9
2022-08-03T15:45:03.086Z,1013.77
2022-08-03T15:50:07.903Z,1013.64
2022-08-03T15:55:03.208Z,1013.5
2022-08-03T16:00:04.817Z,1013.37
2022-08-03T16:05:03.256Z,1013.15
2022-08-03T16:10:04.263Z,1013.06
2022-08-03T16:15:03.343Z,1012.91
2022-08-03T16:20:06.279Z,1012.82
2022-08-03T16:25:03.250Z,1012.74
2022-08-03T16:30:05.914Z,1012.66
2022-08-03T16:35:03.230Z,1012.57
2022-08-03T16:40:04.342Z,1012.47
2022-08-03T16:45:03.093Z,1012.46
2022-08-03T16:50:09.019Z,1012.36
2022-08-03T16:55:03.096Z,1012.23
2022-08-03T17:00:05.124Z,1012.01
2022-08-03T17:05:03.154Z,1011.93
2022-08-03T17:10:04.146Z,1011.82
2022-08-03T17:15:03.149Z,1011.74
2022-08-03T17:20:07.936Z,1011.71
2022-08-03T17:25:07.376Z,1011.64
2022-08-03T17:30:04.921Z,1011.51
2022-08-03T17:35:03.191Z,1011.39
2022-08-03T17:40:04.423Z,1011.28
2022-08-03T17:45:03.670Z,1011.24
2022-08-03T17:50:08.068Z,1011.08
2022-08-03T17:55:06.885Z,1011.04
2022-08-03T18:00:05.750Z,1011.0
2022-08-03T18:05:03.174Z,1010.88
2022-08-03T18:10:11.654Z,1010.74
2022-08-03T18:15:07.933Z,1010.67
2022-08-03T18:20:10.738Z,1010.58
2022-08-03T18:25:07.690Z,1010.46
2022-08-03T18:30:04.722Z,1010.38
2022-08-03T18:35:03.163Z,1010.35
2022-08-03T18:40:04.365Z,1010.29
2022-08-03T18:45:14.654Z,1010.19
2022-08-03T18:50:05.761Z,1010.12
2022-08-03T18:55:07.363Z,1010.04
2022-08-03T19:00:05.854Z,1010.0
2022-08-03T19:05:03.160Z,1009.87
2022-08-03T19:10:04.518Z,1009.84
2022-08-03T19:15:03.365Z,1009.8
2022-08-03T19:20:04.225Z,1009.8
2022-08-03T19:25:03.137Z,1009.82
2022-08-03T19:30:06.872Z,1009.79
2022-08-03T19:35:03.139Z,1009.76
2022-08-03T19:40:10.186Z,1009.75
2022-08-03T19:45:03.206Z,1009.72
2022-08-03T19:50:05.506Z,1009.74
2022-08-03T19:55:03.877Z,1009.67
2022-08-03T20:00:06.324Z,1009.69
2022-08-03T20:05:03.148Z,1009.68
2022-08-03T20:10:04.222Z,1009.72
2022-08-03T20:15:03.163Z,1009.76
2022-08-03T20:20:04.242Z,1009.81
2022-08-03T20:25:03.253Z,1009.85
2022-08-03T20:30:06.182Z,1009.89
2022-08-03T20:35:03.127Z,1009.8
2022-08-03T20:40:04.293Z,1009.88
2022-08-03T20:45:04.923Z,1009.89
2022-08-03T20:50:04.212Z,1009.9
2022-08-03T20:55:03.285Z,1009.87
2022-08-03T21:00:04.806Z,1009.91
2022-08-03T21:05:08.170Z,1009.89
2022-08-03T21:10:04.262Z,1009.9
2022-08-03T21:15:04.081Z,1009.91
2022-08-03T21:20:04.234Z,1009.9
2022-08-03T21:25:03.081Z,1009.91
2022-08-03T21:30:05.255Z,1009.98
2022-08-03T21:35:03.157Z,1010.02
2022-08-03T21:40:04.285Z,1010.04
2022-08-03T21:45:03.100Z,1010.15
2022-08-03T21:50:09.319Z,1010.13
2022-08-03T21:55:03.148Z,1010.13
2022-08-03T22:00:05.802Z,1010.2
2022-08-03T22:05:04.951Z,1010.25
2022-08-03T22:10:04.325Z,1010.25
2022-08-03T22:15:03.280Z,1010.24
2022-08-03T22:20:04.303Z,1010.22
2022-08-03T22:25:03.208Z,1010.28
2022-08-03T22:30:05.616Z,1010.33
2022-08-03T22:35:03.338Z,1010.36
2022-08-03T22:40:04.248Z,1010.38
2022-08-03T22:45:03.164Z,1010.48
2022-08-03T22:50:31.033Z,1010.61
2022-08-03T22:55:03.046Z,1010.65
2022-08-03T23:00:04.633Z,1010.61
2022-08-03T23:05:03.242Z,1010.67
2022-08-03T23:10:04.304Z,1010.63
2022-08-03T23:15:03.285Z,1010.66
2022-08-03T23:20:04.235Z,1010.76
2022-08-03T23:25:03.306Z,1010.73
2022-08-03T23:30:06.360Z,1010.71
2022-08-03T23:35:03.300Z,1010.68
2022-08-03T23:40:04.296Z,1010.74
2022-08-03T23:45:05.691Z,1010.77
2022-08-03T23:50:04.228Z,1010.83
2022-08-03T23:55:03.151Z,1010.87
